createdAt,value
2018-02-22T00:00:18.308Z,48.03
2018-02-22T00:02:45.184Z,50.92
2018-02-22T00:05:12.884Z,53.17
2018-02-22T00:07:39.782Z,53.85
2018-02-22T00:10:06.756Z,45.33
2018-02-22T00:12:33.648Z,43.97
2018-02-22T00:15:00.599Z,48.25
2018-02-22T00:17:27.535Z,45.75
2018-02-22T00:19:54.421Z,45.85
2018-02-22T00:22:21.391Z,45.60
2018-02-22T00:24:48.263Z,52.00
2018-02-22T00:27:15.286Z,41.58
2018-02-22T00:29:42.235Z,45.08
2018-02-22T00:32:09.230Z,44.83
2018-02-22T00:34:36.179Z,43.20
2018-02-22T00:37:03.105Z,43.87
2018-02-22T00:39:30.063Z,37.30
2018-02-22T00:41:57.026Z,39.30
2018-02-22T00:44:23.916Z,39.92
2018-02-22T00:46:50.879Z,41.88
2018-02-22T00:49:17.739Z,42.45
2018-02-22T00:51:44.608Z,39.60
2018-02-22T00:54:11.561Z,39.78
2018-02-22T00:56:38.455Z,36.70
2018-02-22T00:59:05.410Z,37.65
2018-02-22T01:01:32.307Z,37.13
2018-02-22T01:03:59.995Z,39.75
2018-02-22T01:06:26.852Z,43.85
2018-02-22T01:08:53.720Z,40.53
2018-02-22T01:11:20.651Z,41.30
2018-02-22T01:13:47.548Z,41.08
2018-02-22T01:16:15.227Z,41.72
2018-02-22T01:18:42.102Z,43.28
2018-02-22T01:21:09.112Z,41.65
2018-02-22T01:23:36.723Z,42.72
2018-02-22T01:26:03.586Z,36.25
2018-02-22T01:28:30.519Z,35.92
2018-02-22T01:30:57.394Z,38.75
2018-02-22T01:33:24.291Z,36.28
2018-02-22T01:35:51.257Z,33.95
2018-02-22T01:38:18.210Z,33.90
2018-02-22T01:40:45.068Z,38.58
2018-02-22T01:43:12.725Z,33.22
2018-02-22T01:45:39.680Z,36.83
2018-02-22T01:48:06.559Z,33.05
2018-02-22T01:50:33.560Z,35.38
2018-02-22T01:53:00.441Z,37.97
2018-02-22T01:55:27.379Z,29.63
2018-02-22T01:57:54.989Z,32.75
2018-02-22T02:00:21.984Z,34.35
2018-02-22T02:02:48.869Z,38.47
2018-02-22T02:05:15.805Z,31.27
2018-02-22T02:07:42.751Z,29.90
2018-02-22T02:10:09.696Z,33.35
2018-02-22T02:12:36.591Z,37.90
2018-02-22T02:15:03.586Z,30.12
2018-02-22T02:17:30.524Z,32.10
2018-02-22T02:19:57.584Z,34.33
2018-02-22T02:22:24.533Z,32.90
2018-02-22T02:24:51.416Z,32.00
2018-02-22T02:27:18.375Z,29.30
2018-02-22T02:29:45.310Z,32.92
2018-02-22T02:32:12.188Z,39.95
2018-02-22T02:34:39.802Z,30.67
2018-02-22T02:37:06.748Z,28.40
2018-02-22T02:39:33.763Z,30.10
2018-02-22T02:42:00.720Z,33.50
2018-02-22T02:44:27.659Z,34.95
2018-02-22T02:46:54.608Z,29.45
2018-02-22T02:49:21.477Z,29.80
2018-02-22T02:51:48.443Z,27.50
2018-02-22T02:54:15.341Z,25.55
2018-02-22T02:56:42.280Z,27.85
2018-02-22T02:59:09.159Z,29.15
2018-02-22T03:01:36.019Z,27.23
2018-02-22T03:04:02.998Z,27.23
2018-02-22T03:06:30.613Z,31.02
2018-02-22T03:08:57.566Z,28.27
2018-02-22T03:11:24.469Z,31.12
2018-02-22T03:13:51.414Z,23.98
2018-02-22T03:16:18.277Z,31.70
2018-02-22T03:18:45.212Z,29.20
2018-02-22T03:21:12.091Z,27.65
2018-02-22T03:23:39.131Z,28.25
2018-02-22T03:26:05.998Z,31.52
2018-02-22T03:28:32.894Z,29.10
2018-02-22T03:30:59.828Z,27.08
2018-02-22T03:33:27.462Z,28.25
2018-02-22T03:35:54.401Z,29.85
2018-02-22T03:38:21.359Z,26.52
2018-02-22T03:40:48.237Z,24.65
2018-02-22T03:43:15.167Z,28.87
2018-02-22T03:45:42.778Z,29.60
2018-02-22T03:48:09.709Z,22.15
2018-02-22T03:50:36.578Z,26.67
2018-02-22T03:53:03.513Z,27.67
2018-02-22T03:55:30.388Z,24.52
2018-02-22T03:57:57.310Z,24.10
2018-02-22T04:00:24.316Z,23.60
2018-02-22T04:02:51.252Z,25.40
2018-02-22T04:05:18.851Z,26.55
2018-02-22T04:07:45.777Z,30.95
2018-02-22T04:10:12.715Z,25.40
2018-02-22T04:12:39.649Z,25.45
2018-02-22T04:15:06.517Z,26.40
2018-02-22T04:17:33.480Z,32.00
2018-02-22T04:20:00.436Z,30.60
2018-02-22T04:22:27.385Z,25.90
2018-02-22T04:24:54.318Z,27.70
2018-02-22T04:27:21.288Z,26.30
2018-02-22T04:29:48.251Z,27.62
2018-02-22T04:32:15.117Z,26.83
2018-02-22T04:34:42.731Z,31.00
2018-02-22T04:37:09.666Z,28.73
2018-02-22T04:39:36.576Z,33.15
2018-02-22T04:42:04.295Z,23.65
2018-02-22T04:44:31.172Z,25.20
2018-02-22T04:46:58.115Z,25.00
2018-02-22T04:49:25.789Z,29.58
2018-02-22T04:51:53.690Z,37.70
2018-02-22T04:54:20.590Z,29.80
2018-02-22T04:56:47.519Z,25.27
2018-02-22T04:59:14.448Z,33.65
2018-02-22T05:01:41.315Z,30.67
2018-02-22T05:04:08.254Z,30.15
2018-02-22T05:06:35.174Z,25.67
2018-02-22T05:09:02.115Z,26.75
2018-02-22T05:11:29.002Z,30.62
2018-02-22T05:13:55.935Z,25.92
2018-02-22T05:16:22.900Z,29.17
2018-02-22T05:18:49.902Z,24.20
2018-02-22T05:21:16.872Z,26.23
2018-02-22T05:23:44.765Z,28.73
2018-02-22T05:26:16.446Z,26.20
2018-02-22T05:28:58.270Z,30.27
2018-02-22T05:31:26.024Z,28.48
2018-02-22T05:33:52.976Z,29.55
2018-02-22T05:36:19.997Z,25.12
2018-02-22T05:39:01.149Z,26.52
2018-02-22T05:41:29.737Z,26.00
2018-02-22T05:43:56.907Z,25.05
2018-02-22T05:46:24.540Z,29.90
2018-02-22T05:48:51.445Z,25.30
2018-02-22T05:51:18.400Z,30.33
2018-02-22T05:53:45.332Z,27.30
2018-02-22T05:56:12.208Z,25.40
2018-02-22T05:58:39.139Z,24.08
2018-02-22T06:01:08.111Z,29.33
2018-02-22T06:03:46.416Z,24.23
2018-02-22T06:06:27.591Z,27.00
2018-02-22T06:09:07.523Z,26.42
2018-02-22T06:11:45.864Z,28.65
2018-02-22T06:14:14.783Z,29.73
2018-02-22T06:16:43.005Z,26.67
2018-02-22T06:19:09.924Z,30.33
2018-02-22T06:21:36.871Z,29.23
2018-02-22T06:24:03.739Z,23.38
2018-02-22T06:26:30.673Z,23.67
2018-02-22T06:29:01.569Z,22.52
2018-02-22T06:31:32.488Z,29.60
2018-02-22T06:34:00.829Z,27.30
2018-02-22T06:36:30.039Z,24.10
2018-02-22T06:38:56.951Z,21.55
2018-02-22T06:41:24.174Z,20.20
2018-02-22T06:43:51.656Z,21.83
2018-02-22T06:46:18.680Z,30.17
2018-02-22T06:48:45.552Z,23.73
2018-02-22T06:51:12.490Z,19.42
2018-02-22T06:53:39.419Z,23.80
2018-02-22T06:56:06.364Z,23.70
2018-02-22T06:58:33.305Z,29.02
2018-02-22T07:01:00.968Z,27.42
2018-02-22T07:03:28.487Z,23.73
2018-02-22T07:05:55.568Z,23.08
2018-02-22T07:08:23.244Z,25.08
2018-02-22T07:10:50.131Z,26.95
2018-02-22T07:13:17.055Z,23.00
2018-02-22T07:15:44.020Z,21.35
2018-02-22T07:18:11.750Z,20.98
2018-02-22T07:20:38.675Z,21.83
2018-02-22T07:23:16.650Z,18.65
2018-02-22T07:25:32.594Z,22.50
2018-02-22T07:27:59.471Z,21.70
2018-02-22T07:30:26.480Z,16.92
2018-02-22T07:32:53.335Z,22.58
2018-02-22T07:35:20.316Z,18.12
2018-02-22T07:37:47.193Z,19.85
2018-02-22T07:40:14.901Z,20.67
2018-02-22T07:42:41.763Z,23.50
2018-02-22T07:45:08.620Z,20.08
2018-02-22T07:47:35.608Z,20.45
2018-02-22T07:50:02.488Z,16.80
2018-02-22T07:52:29.439Z,17.27
2018-02-22T07:54:56.321Z,18.73
2018-02-22T07:57:23.292Z,16.70
2018-02-22T07:59:50.251Z,16.23
2018-02-22T08:02:17.127Z,18.07
2018-02-22T08:04:44.063Z,18.80
2018-02-22T08:07:10.927Z,17.10
2018-02-22T08:09:37.852Z,19.57
2018-02-22T08:12:04.805Z,17.83
2018-02-22T08:14:31.675Z,18.87
2018-02-22T08:16:58.611Z,16.33
2018-02-22T08:19:25.520Z,19.40
2018-02-22T08:21:52.471Z,16.80
2018-02-22T08:24:19.397Z,16.10
2018-02-22T08:26:46.273Z,15.37
2018-02-22T08:29:13.269Z,17.60
2018-02-22T08:31:40.208Z,17.37
2018-02-22T08:34:11.569Z,15.13
2018-02-22T08:36:38.586Z,16.47
2018-02-22T08:39:05.473Z,18.07
2018-02-22T08:41:32.457Z,17.20
2018-02-22T08:43:59.395Z,13.90
2018-02-22T08:46:26.328Z,16.40
2018-02-22T08:48:53.282Z,14.63
2018-02-22T08:51:20.219Z,16.40
2018-02-22T08:53:47.084Z,14.77
2018-02-22T08:56:14.020Z,13.67
2018-02-22T08:58:40.973Z,15.40
2018-02-22T09:01:07.896Z,17.70
2018-02-22T09:03:34.838Z,16.00
2018-02-22T09:06:01.717Z,14.23
2018-02-22T09:08:28.664Z,16.13
2018-02-22T09:10:55.511Z,19.63
2018-02-22T09:13:22.455Z,15.20
2018-02-22T09:15:49.316Z,16.43
2018-02-22T09:18:16.239Z,13.77
2018-02-22T09:20:43.944Z,15.20
2018-02-22T09:23:13.946Z,13.67
2018-02-22T09:25:42.493Z,13.20
2018-02-22T09:28:15.014Z,11.93
2018-02-22T09:30:42.701Z,8.77
2018-02-22T09:33:11.232Z,9.10
2018-02-22T09:35:38.164Z,10.03
2018-02-22T09:38:07.630Z,7.60
2018-02-22T09:40:34.605Z,9.80
2018-02-22T09:43:04.159Z,11.80
2018-02-22T09:45:31.031Z,8.17
2018-02-22T09:48:00.787Z,9.63
2018-02-22T09:50:30.537Z,9.57
2018-02-22T09:52:57.508Z,8.88
2018-02-22T09:55:24.398Z,11.82
2018-02-22T09:57:53.360Z,8.07
2018-02-22T10:00:27.207Z,9.43
2018-02-22T10:02:54.286Z,8.27
2018-02-22T10:05:22.068Z,7.80
2018-02-22T10:07:49.976Z,9.07
2018-02-22T10:10:16.943Z,6.37
2018-02-22T10:12:43.884Z,6.78
2018-02-22T10:15:10.835Z,6.85
2018-02-22T10:17:37.971Z,8.90
2018-02-22T10:20:06.044Z,8.77
2018-02-22T10:22:38.177Z,8.60
2018-02-22T10:25:06.066Z,11.12
2018-02-22T10:27:38.032Z,11.23
2018-02-22T10:30:06.539Z,8.60
2018-02-22T10:32:39.564Z,7.68
2018-02-22T10:35:14.754Z,8.30
2018-02-22T10:37:55.721Z,7.10
2018-02-22T10:40:26.067Z,8.50
2018-02-22T10:42:52.941Z,7.28
2018-02-22T10:45:20.918Z,8.77
2018-02-22T10:48:00.073Z,11.95
2018-02-22T10:50:33.285Z,7.30
2018-02-22T10:53:12.145Z,6.62
2018-02-22T10:55:47.927Z,7.55
2018-02-22T10:58:21.688Z,8.10
2018-02-22T11:00:55.195Z,7.85
2018-02-22T11:03:22.168Z,6.85
2018-02-22T11:05:53.728Z,6.70
2018-02-22T11:08:28.574Z,6.60
2018-02-22T11:10:56.441Z,12.63
2018-02-22T11:13:24.228Z,8.10
2018-02-22T11:15:51.103Z,6.43
2018-02-22T11:18:18.040Z,6.03
2018-02-22T11:20:44.923Z,7.65
2018-02-22T11:23:11.879Z,8.48
2018-02-22T11:25:39.496Z,9.90
2018-02-22T11:28:06.497Z,7.75
2018-02-22T11:30:43.970Z,5.70
2018-02-22T11:33:25.098Z,8.55
2018-02-22T11:36:04.604Z,7.10
2018-02-22T11:38:31.568Z,8.45
2018-02-22T11:41:10.429Z,7.85
2018-02-22T11:43:38.398Z,7.07
2018-02-22T11:46:10.105Z,7.43
2018-02-22T11:48:37.428Z,6.95
2018-02-22T11:51:06.987Z,7.57
2018-02-22T11:53:34.047Z,6.85
2018-02-22T11:56:02.782Z,8.63
2018-02-22T11:58:29.656Z,6.05
2018-02-22T12:00:57.376Z,6.07
2018-02-22T12:03:24.247Z,7.10
2018-02-22T12:05:57.030Z,8.75
2018-02-22T12:08:23.966Z,7.68
2018-02-22T12:10:50.887Z,6.93
2018-02-22T12:13:17.809Z,9.68
2018-02-22T12:15:45.057Z,8.43
2018-02-22T12:18:12.066Z,10.95
2018-02-22T12:20:38.969Z,10.70
2018-02-22T12:23:06.878Z,10.50
2018-02-22T12:25:33.772Z,12.15
2018-02-22T12:28:00.777Z,11.40
2018-02-22T12:30:28.377Z,10.88
2018-02-22T12:32:55.486Z,9.18
2018-02-22T12:35:22.421Z,11.07
2018-02-22T12:37:49.364Z,10.77
2018-02-22T12:40:16.236Z,11.93
2018-02-22T12:42:43.149Z,9.30
2018-02-22T12:45:10.133Z,11.77
2018-02-22T12:47:38.906Z,10.27
2018-02-22T12:50:07.220Z,11.50
2018-02-22T12:52:37.034Z,11.63
2018-02-22T12:55:04.169Z,11.55
2018-02-22T12:57:33.276Z,9.30
2018-02-22T13:00:03.620Z,10.02
2018-02-22T13:02:32.694Z,10.20
2018-02-22T13:05:00.844Z,10.80
2018-02-22T13:07:30.994Z,9.23
2018-02-22T13:10:01.511Z,10.98
2018-02-22T13:12:28.479Z,11.93
2018-02-22T13:14:55.693Z,11.32
2018-02-22T13:17:26.955Z,10.02
2018-02-22T13:19:54.064Z,13.35
2018-02-22T13:22:20.931Z,9.27
2018-02-22T13:24:47.872Z,10.68
2018-02-22T13:27:14.761Z,11.70
2018-02-22T13:29:41.710Z,7.93
2018-02-22T13:32:08.663Z,10.80
2018-02-22T13:34:41.866Z,10.10
2018-02-22T13:37:23.333Z,7.85
2018-02-22T13:39:50.860Z,7.95
2018-02-22T13:42:17.746Z,9.23
2018-02-22T13:45:02.497Z,10.20
2018-02-22T13:47:30.084Z,9.88
2018-02-22T13:50:09.854Z,9.20
2018-02-22T13:52:39.135Z,9.75
2018-02-22T13:55:09.131Z,9.20
2018-02-22T13:57:36.127Z,7.90
2018-02-22T14:00:03.817Z,9.70
2018-02-22T14:02:30.805Z,9.52
2018-02-22T14:04:59.118Z,10.77
2018-02-22T14:07:26.809Z,10.00
2018-02-22T14:09:54.468Z,10.55
2018-02-22T14:12:22.148Z,11.65
2018-02-22T14:14:49.131Z,11.40
2018-02-22T14:17:16.077Z,9.10
2018-02-22T14:19:43.623Z,9.00
2018-02-22T14:22:15.165Z,9.52
2018-02-22T14:24:44.149Z,13.20
2018-02-22T14:27:13.875Z,8.10
2018-02-22T14:29:44.399Z,13.38
2018-02-22T14:32:12.730Z,12.45
2018-02-22T14:34:40.402Z,9.00
2018-02-22T14:37:07.341Z,13.10
2018-02-22T14:39:34.292Z,9.98
2018-02-22T14:42:01.160Z,8.20
2018-02-22T14:44:28.882Z,11.73
2018-02-22T14:46:55.902Z,8.98
2018-02-22T14:49:22.854Z,8.98
2018-02-22T14:51:49.804Z,8.80
2018-02-22T14:54:23.907Z,9.48
2018-02-22T14:56:51.551Z,9.10
2018-02-22T14:59:19.190Z,9.77
2018-02-22T15:01:48.734Z,9.60
2018-02-22T15:04:17.830Z,9.15
2018-02-22T15:06:45.106Z,9.63
2018-02-22T15:09:11.989Z,8.15
2018-02-22T15:11:42.716Z,8.10
2018-02-22T15:14:11.301Z,8.73
2018-02-22T15:16:38.805Z,8.48
2018-02-22T15:19:06.290Z,9.65
2018-02-22T15:21:33.952Z,9.30
2018-02-22T15:24:00.940Z,8.88
2018-02-22T15:26:27.821Z,11.20
2018-02-22T15:28:56.993Z,12.93
2018-02-22T15:31:28.792Z,11.00
2018-02-22T15:33:56.752Z,10.05
2018-02-22T15:36:25.643Z,16.67
2018-02-22T15:38:52.824Z,10.80
2018-02-22T15:41:19.707Z,7.75
2018-02-22T15:43:46.681Z,7.35
2018-02-22T15:46:14.285Z,10.68
2018-02-22T15:48:45.501Z,12.07
2018-02-22T15:51:12.547Z,16.33
2018-02-22T15:53:39.444Z,11.57
2018-02-22T15:56:09.380Z,11.60
2018-02-22T15:58:42.159Z,13.57
2018-02-22T16:01:09.108Z,13.50
2018-02-22T16:03:37.093Z,12.23
2018-02-22T16:06:05.076Z,13.85
2018-02-22T16:08:46.628Z,13.45
2018-02-22T16:11:14.320Z,10.27
2018-02-22T16:13:51.787Z,12.43
2018-02-22T16:16:22.520Z,12.02
2018-02-22T16:18:52.351Z,12.85
2018-02-22T16:21:32.295Z,14.52
2018-02-22T16:24:00.523Z,10.43
2018-02-22T16:26:38.216Z,12.75
2018-02-22T16:29:19.019Z,11.98
2018-02-22T16:31:46.572Z,17.10
2018-02-22T16:34:13.770Z,15.68
2018-02-22T16:36:43.317Z,20.02
2018-02-22T16:39:22.776Z,13.65
2018-02-22T16:41:58.475Z,11.40
2018-02-22T16:44:26.572Z,12.57
2018-02-22T16:47:06.463Z,13.38
2018-02-22T16:49:45.555Z,12.00
2018-02-22T16:52:16.098Z,11.25
2018-02-22T16:54:52.305Z,10.35
2018-02-22T16:57:19.280Z,12.05
2018-02-22T16:59:58.691Z,15.30
2018-02-22T17:02:38.312Z,12.98
2018-02-22T17:05:13.846Z,15.18
2018-02-22T17:07:41.846Z,13.70
2018-02-22T17:10:09.684Z,13.90
2018-02-22T17:12:36.627Z,13.90
2018-02-22T17:15:15.353Z,13.20
2018-02-22T17:17:45.236Z,12.65
2018-02-22T17:20:12.196Z,13.48
2018-02-22T17:22:39.119Z,15.13
2018-02-22T17:25:10.654Z,16.58
2018-02-22T17:27:47.472Z,15.05
2018-02-22T17:30:25.200Z,18.58
2018-02-22T17:32:54.292Z,13.25
2018-02-22T17:35:44.659Z,13.02
2018-02-22T17:38:24.740Z,12.52
2018-02-22T17:41:07.080Z,14.90
2018-02-22T17:43:49.147Z,16.15
2018-02-22T17:46:31.001Z,14.15
2018-02-22T17:51:44.444Z,12.50
2018-02-22T17:54:25.834Z,11.82
2018-02-22T17:57:08.318Z,13.18
2018-02-22T17:59:45.188Z,12.37
2018-02-22T18:02:23.746Z,13.07
2018-02-22T18:05:04.072Z,13.48
2018-02-22T18:07:45.757Z,13.60
2018-02-22T18:10:13.988Z,13.27
2018-02-22T18:12:41.002Z,15.38
2018-02-22T18:15:08.755Z,13.10
2018-02-22T18:17:35.767Z,13.95
2018-02-22T18:20:02.770Z,18.37
2018-02-22T18:22:30.510Z,12.37
2018-02-22T18:24:57.455Z,13.98
2018-02-22T18:27:24.453Z,13.05
2018-02-22T18:29:51.388Z,13.70
2018-02-22T18:32:18.392Z,13.77
2018-02-22T18:34:45.335Z,12.37
2018-02-22T18:37:18.083Z,13.35
2018-02-22T18:39:45.107Z,13.07
2018-02-22T18:42:26.843Z,13.10
2018-02-22T18:44:59.792Z,13.45
2018-02-22T18:47:26.681Z,17.23
2018-02-22T18:49:53.624Z,15.23
2018-02-22T18:52:21.912Z,14.45
2018-02-22T18:54:50.342Z,14.68
2018-02-22T18:57:18.811Z,15.65
2018-02-22T18:59:48.452Z,13.07
2018-02-22T19:02:18.865Z,15.18
2018-02-22T19:04:45.751Z,14.68
2018-02-22T19:07:12.705Z,12.07
2018-02-22T19:09:39.640Z,14.00
2018-02-22T19:17:46.765Z,12.98
2018-02-22T19:20:30.098Z,12.05
2018-02-22T19:22:58.284Z,16.00
2018-02-22T19:25:26.113Z,12.55
2018-02-22T19:27:53.091Z,11.63
2018-02-22T19:30:30.141Z,11.50
2018-02-22T19:33:04.420Z,13.80
2018-02-22T19:35:39.995Z,18.77
2018-02-22T19:38:22.375Z,12.20
2018-02-22T19:41:01.409Z,15.48
2018-02-22T19:46:12.441Z,16.23
2018-02-22T19:48:51.968Z,16.45
2018-02-22T19:51:35.509Z,12.68
2018-02-22T19:56:53.420Z,15.52
2018-02-22T19:59:33.285Z,13.98
2018-02-22T20:02:01.441Z,12.45
2018-02-22T20:04:29.146Z,13.40
2018-02-22T20:06:56.139Z,13.70
2018-02-22T20:09:23.089Z,18.35
2018-02-22T20:12:00.613Z,20.55
2018-02-22T20:14:40.705Z,27.45
2018-02-22T20:17:10.285Z,30.12
2018-02-22T20:19:49.248Z,16.08
2018-02-22T20:22:19.979Z,15.70
2018-02-22T20:24:54.899Z,15.85
2018-02-22T20:27:32.506Z,15.77
2018-02-22T20:32:58.454Z,15.27
2018-02-22T20:35:43.323Z,15.75
2018-02-22T20:38:24.159Z,12.57
2018-02-22T20:40:52.075Z,14.48
2018-02-22T20:43:19.486Z,14.30
2018-02-22T20:45:47.825Z,14.18
2018-02-22T20:48:29.820Z,13.82
2018-02-22T20:51:03.634Z,12.07
2018-02-22T20:53:31.559Z,14.57
2018-02-22T20:56:06.540Z,17.48
2018-02-22T20:58:48.024Z,15.43
2018-02-22T21:01:18.459Z,16.15
2018-02-22T21:03:48.792Z,13.90
2018-02-22T21:06:29.302Z,17.12
2018-02-22T21:09:07.116Z,13.93
2018-02-22T21:11:34.963Z,14.40
2018-02-22T21:14:09.402Z,15.32
2018-02-22T21:16:47.597Z,15.52
2018-02-22T21:19:17.004Z,18.42
2018-02-22T21:21:53.647Z,12.52
2018-02-22T21:24:20.554Z,15.52
2018-02-22T21:26:47.523Z,13.95
2018-02-22T21:29:23.906Z,12.85
2018-02-22T21:32:04.252Z,14.23
2018-02-22T21:34:45.254Z,16.05
2018-02-22T21:37:29.050Z,16.33
2018-02-22T21:40:10.308Z,13.55
2018-02-22T21:42:53.878Z,14.60
2018-02-22T21:50:52.267Z,13.38
2018-02-22T21:53:32.966Z,13.45
2018-02-22T21:56:13.574Z,14.55
2018-02-22T21:58:51.366Z,16.08
2018-02-22T22:01:33.116Z,13.95
2018-02-22T22:04:07.307Z,13.40
2018-02-22T22:06:34.230Z,16.55
2018-02-22T22:09:01.921Z,19.45
2018-02-22T22:11:28.865Z,14.63
2018-02-22T22:13:55.806Z,13.35
2018-02-22T22:16:22.682Z,16.25
2018-02-22T22:18:49.620Z,15.23
2018-02-22T22:21:16.550Z,11.90
2018-02-22T22:23:43.516Z,13.85
2018-02-22T22:26:10.399Z,13.73
2018-02-22T22:28:37.285Z,17.80
2018-02-22T22:31:04.216Z,14.50
2018-02-22T22:33:31.148Z,15.93
2018-02-22T22:35:58.084Z,15.85
2018-02-22T22:38:25.009Z,15.75
2018-02-22T22:40:51.881Z,14.00
2018-02-22T22:43:19.866Z,15.15
2018-02-22T22:45:55.514Z,16.08
2018-02-22T22:48:23.193Z,23.87
2018-02-22T22:50:50.505Z,13.50
2018-02-22T22:53:17.791Z,15.27
2018-02-22T22:55:48.262Z,14.25
2018-02-22T22:58:22.050Z,20.00
2018-02-22T23:00:59.039Z,14.93
2018-02-22T23:03:35.651Z,15.48
2018-02-22T23:06:15.138Z,12.95
2018-02-22T23:08:54.865Z,15.80
2018-02-22T23:11:22.527Z,18.48
2018-02-22T23:14:00.437Z,18.17
2018-02-22T23:16:28.180Z,13.85
2018-02-22T23:18:55.795Z,18.37
2018-02-22T23:21:24.116Z,14.23
2018-02-22T23:23:51.736Z,14.93
2018-02-22T23:26:30.727Z,13.40
2018-02-22T23:29:04.082Z,14.00
2018-02-22T23:31:32.670Z,14.63
2018-02-22T23:36:46.862Z,16.02
2018-02-22T23:39:29.387Z,13.07
2018-02-22T23:42:03.219Z,16.33
2018-02-22T23:44:30.211Z,14.38
2018-02-22T23:46:57.140Z,14.68
2018-02-22T23:49:24.005Z,19.02
2018-02-22T23:51:50.988Z,12.25
2018-02-22T23:54:17.976Z,17.35
2018-02-22T23:56:44.869Z,14.95
2018-02-22T23:59:11.874Z,13.48
